Time;durP1;ratioP1;P1;durP2;ratioP2;P2;SDS_P1;SDS_P2;PMS_P1;PMS_P2;Temp;Humidity;BMP_temperature;BMP_pressure;BME280_temperature;BME280_humidity;BME280_pressure;Samples;Min_cycle;Max_cycle;Signal;HPM_P1;HPM_P2
2023/12/25 00:01:25;;;;;;;;;;;;;;;;;;5056214;28;19919;-21
2023/12/25 00:03:51;;;;;;;;;;;;;;;;;;5055792;28;19909;-24
2023/12/25 00:06:17;;;;;;;;;;;;;;;;;;5056079;28;20264;-23
2023/12/25 00:08:43;;;;;;;;;;;;;;;;;;5055786;28;19992;-29
2023/12/25 00:11:10;;;;;;;;;;;;;;;;;;5055933;28;19909;-25
2023/12/25 00:13:36;;;;;;;;;;;;;;;;;;5055846;28;19939;-22
2023/12/25 00:16:02;;;;;;;;;;;;;;;;;;5056112;28;19909;-23
2023/12/25 00:18:28;;;;;;;;;;;;;;;;;;5055779;28;20067;-23
2023/12/25 00:20:54;;;;;;;;;;;;;;;;;;5055674;28;20391;-26
2023/12/25 00:23:20;;;;;;;;;;;;;;;;;;5055621;28;20267;-27
2023/12/25 00:25:46;;;;;;;;;;;;;;;;;;5055642;28;19947;-25
2023/12/25 00:28:12;;;;;;;;;;;;;;;;;;5055751;28;20189;-23
2023/12/25 00:30:37;;;;;;;;;;;;;;;;;;5055526;28;19944;-26
2023/12/25 00:33:03;;;;;;;;;;;;;;;;;;5055481;28;19909;-26
2023/12/25 00:35:29;;;;;;;;;;;;;;;;;;5055923;28;19995;-27
2023/12/25 00:37:55;;;;;;;;;;;;;;;;;;5055661;28;19920;-29
2023/12/25 00:40:21;;;;;;;;;;;;;;;;;;5056128;28;19909;-25
2023/12/25 00:42:47;;;;;;;;;;;;;;;;;;5055230;28;19923;-23
2023/12/25 00:45:13;;;;;;;;;;;;;;;;;;5055579;28;20347;-22
2023/12/25 00:47:39;;;;;;;;;;;;;;;;;;5055301;28;20306;-23
2023/12/25 00:50:05;;;;;;;;;;;;;;;;;;5056164;28;19908;-26
2023/12/25 00:52:31;;;;;;;;;;;;;;;;;;5055823;28;20280;-26
2023/12/25 00:54:57;;;;;;;;;;;;;;;;;;5055172;28;19913;-23
2023/12/25 00:57:23;;;;;;;;;;;;;;;;;;5055303;28;19935;-27
2023/12/25 00:59:49;;;;;;;;;;;;;;;;;;5055055;28;20066;-26
2023/12/25 01:02:15;;;;;;;;;;;;;;;;;;5055157;28;19919;-22
2023/12/25 01:04:41;;;;;;;;;;;;;;;;;;5054696;28;20305;-22
2023/12/25 01:07:07;;;;;;;;;;;;;;;;;;5054954;28;19915;-24
2023/12/25 01:09:33;;;;;;;;;;;;;;;;;;5054845;28;19915;-23
2023/12/25 01:11:59;;;;;;;;;;;;;;;;;;5054751;28;19909;-27
2023/12/25 01:14:25;;;;;;;;;;;;;;;;;;5054754;28;19915;-22
2023/12/25 01:16:51;;;;;;;;;;;;;;;;;;5054976;28;19909;-25
2023/12/25 01:19:17;;;;;;;;;;;;;;;;;;5055001;28;19924;-23
2023/12/25 01:21:43;;;;;;;;;;;;;;;;;;5054330;28;20008;-26
2023/12/25 01:24:08;;;;;;;;;;;;;;;;;;5054600;28;19931;-26
2023/12/25 01:26:34;;;;;;;;;;;;;;;;;;5054619;28;19913;-22
2023/12/25 01:29:00;;;;;;;;;;;;;;;;;;5054555;28;19920;-26
2023/12/25 01:31:26;;;;;;;;;;;;;;;;;;5054834;28;19909;-26
2023/12/25 01:33:52;;;;;;;;;;;;;;;;;;5054493;28;19996;-27
2023/12/25 01:36:18;;;;;;;;;;;;;;;;;;5054494;28;19916;-26
2023/12/25 01:38:44;;;;;;;;;;;;;;;;;;5054466;28;19944;-24
2023/12/25 01:41:10;;;;;;;;;;;;;;;;;;5054354;28;20255;-27
2023/12/25 01:43:36;;;;;;;;;;;;;;;;;;5036720;28;19908;-32
2023/12/25 01:46:02;;;;;;;;;;;;;;;;;;5054422;28;19917;-23
2023/12/25 01:48:28;;;;;;;;;;;;;;;;;;5054343;28;19908;-25
2023/12/25 01:50:56;;;;;;;;;;;;;;;;;;5054656;28;19908;-28
2023/12/25 01:53:22;;;;;;;;;;;;;;;;;;5054429;28;19997;-32
2023/12/25 01:55:48;;;;;;;;;;;;;;;;;;5054368;28;19913;-28
2023/12/25 01:58:14;;;;;;;;;;;;;;;;;;5054304;28;19909;-27
2023/12/25 02:00:40;;;;;;;;;;;;;;;;;;5054626;28;19913;-25
2023/12/25 02:03:06;;;;;;;;;;;;;;;;;;5054118;28;19924;-25
2023/12/25 02:05:32;;;;;;;;;;;;;;;;;;5053933;28;20006;-23
2023/12/25 02:07:58;;;;;;;;;;;;;;;;;;5054169;28;19913;-22
2023/12/25 02:10:24;;;;;;;;;;;;;;;;;;5054183;28;19917;-22
2023/12/25 02:12:49;;;;;;;;;;;;;;;;;;5054351;28;19909;-27
2023/12/25 02:15:15;;;;;;;;;;;;;;;;;;5054198;28;20397;-21
2023/12/25 02:17:41;;;;;;;;;;;;;;;;;;5054142;28;20337;-27
2023/12/25 02:20:07;;;;;;;;;;;;;;;;;;5054032;28;19924;-23
2023/12/25 02:22:33;;;;;;;;;;;;;;;;;;5053916;28;19917;-25
2023/12/25 02:25:00;;;;;;;;;;;;;;;;;;5054320;28;19909;-25
2023/12/25 02:27:26;;;;;;;;;;;;;;;;;;5053974;28;19909;-28
2023/12/25 02:29:52;;;;;;;;;;;;;;;;;;5054068;28;19909;-22
2023/12/25 02:32:18;;;;;;;;;;;;;;;;;;5054433;28;20003;-23
2023/12/25 02:34:47;;;;;;;;;;;;;;;;;;5057800;28;19916;-23
2023/12/25 02:37:13;;;;;;;;;;;;;;;;;;5058008;28;20232;-26
2023/12/25 02:39:39;;;;;;;;;;;;;;;;;;5057722;28;19916;-23
2023/12/25 02:42:05;;;;;;;;;;;;;;;;;;5057817;28;20416;-25
2023/12/25 02:44:31;;;;;;;;;;;;;;;;;;5057599;28;19916;-24
2023/12/25 02:46:56;;;;;;;;;;;;;;;;;;5057860;28;19912;-26
2023/12/25 02:49:22;;;;;;;;;;;;;;;;;;5057581;28;19915;-22
2023/12/25 02:51:48;;;;;;;;;;;;;;;;;;5057739;28;20300;-26
2023/12/25 02:54:14;;;;;;;;;;;;;;;;;;5057686;28;20373;-23
2023/12/25 02:56:40;;;;;;;;;;;;;;;;;;5057616;28;19905;-21
2023/12/25 02:59:06;;;;;;;;;;;;;;;;;;5057288;28;20369;-26
2023/12/25 03:01:32;;;;;;;;;;;;;;;;;;5057261;28;19913;-21
2023/12/25 03:03:58;;;;;;;;;;;;;;;;;;5057294;28;19908;-25
2023/12/25 03:06:24;;;;;;;;;;;;;;;;;;5057736;28;19982;-27
2023/12/25 03:08:52;;;;;;;;;;;;;;;;;;5039310;28;20132;-28
2023/12/25 03:11:18;;;;;;;;;;;;;;;;;;5057233;28;19913;-27
2023/12/25 03:13:44;;;;;;;;;;;;;;;;;;5057000;28;19912;-26
2023/12/25 03:16:10;;;;;;;;;;;;;;;;;;5057448;28;19924;-24
2023/12/25 03:18:36;;;;;;;;;;;;;;;;;;5056966;28;19909;-28
2023/12/25 03:21:02;;;;;;;;;;;;;;;;;;5056826;28;20234;-28
2023/12/25 03:23:28;;;;;;;;;;;;;;;;;;5056751;28;20001;-28
2023/12/25 03:25:56;;;;;;;;;;;;;;;;;;5057089;28;19909;-24
2023/12/25 03:28:23;;;;;;;;;;;;;;;;;;5057027;28;20256;-25
2023/12/25 03:30:49;;;;;;;;;;;;;;;;;;5056712;28;19944;-24
2023/12/25 03:33:15;;;;;;;;;;;;;;;;;;5056722;28;19970;-23
2023/12/25 03:35:41;;;;;;;;;;;;;;;;;;5056871;28;19916;-23
2023/12/25 03:38:07;;;;;;;;;;;;;;;;;;5056596;28;20305;-26
2023/12/25 03:40:33;;;;;;;;;;;;;;;;;;5056601;28;19915;-22
2023/12/25 03:42:59;;;;;;;;;;;;;;;;;;5056274;28;19974;-28
2023/12/25 03:45:25;;;;;;;;;;;;;;;;;;5056591;28;19992;-23
2023/12/25 03:47:51;;;;;;;;;;;;;;;;;;5056624;28;20277;-25
2023/12/25 03:50:17;;;;;;;;;;;;;;;;;;5056284;28;19909;-21
2023/12/25 03:52:43;;;;;;;;;;;;;;;;;;5056262;28;19966;-24
2023/12/25 03:55:09;;;;;;;;;;;;;;;;;;5056288;28;19916;-22
2023/12/25 03:57:35;;;;;;;;;;;;;;;;;;5056496;28;19921;-25
2023/12/25 04:00:01;;;;;;;;;;;;;;;;;;5056279;28;20351;-29
2023/12/25 04:02:27;;;;;;;;;;;;;;;;;;5055994;28;19913;-29
2023/12/25 04:04:53;;;;;;;;;;;;;;;;;;5055952;28;19927;-27
2023/12/25 04:07:19;;;;;;;;;;;;;;;;;;5056368;28;19909;-25
2023/12/25 04:09:45;;;;;;;;;;;;;;;;;;5056140;28;19908;-24
2023/12/25 04:12:10;;;;;;;;;;;;;;;;;;5056147;28;20401;-23
2023/12/25 04:14:37;;;;;;;;;;;;;;;;;;5055910;28;19919;-25
2023/12/25 04:17:03;;;;;;;;;;;;;;;;;;5055849;28;20003;-23
2023/12/25 04:19:29;;;;;;;;;;;;;;;;;;5055763;28;19909;-25
2023/12/25 04:21:55;;;;;;;;;;;;;;;;;;5055904;28;20015;-23
2023/12/25 04:24:21;;;;;;;;;;;;;;;;;;5055951;28;19909;-24
2023/12/25 04:26:47;;;;;;;;;;;;;;;;;;5055626;28;20287;-23
2023/12/25 04:29:13;;;;;;;;;;;;;;;;;;5055581;28;19915;-22
2023/12/25 04:31:39;;;;;;;;;;;;;;;;;;5037955;28;19936;-24
2023/12/25 04:34:05;;;;;;;;;;;;;;;;;;5055461;28;19909;-26
2023/12/25 04:36:31;;;;;;;;;;;;;;;;;;5055418;28;19905;-24
2023/12/25 04:38:58;;;;;;;;;;;;;;;;;;5055378;28;19952;-24
2023/12/25 04:41:24;;;;;;;;;;;;;;;;;;5055225;28;19942;-24
2023/12/25 04:43:53;;;;;;;;;;;;;;;;;;5055400;28;19913;-27
2023/12/25 04:46:19;;;;;;;;;;;;;;;;;;5055536;28;20235;-20
2023/12/25 04:48:45;;;;;;;;;;;;;;;;;;5055464;28;19909;-24
2023/12/25 04:51:11;;;;;;;;;;;;;;;;;;5055211;28;19940;-28
2023/12/25 04:53:37;;;;;;;;;;;;;;;;;;5055036;28;19908;-25
2023/12/25 04:56:03;;;;;;;;;;;;;;;;;;5036707;28;19919;-25
2023/12/25 04:58:29;;;;;;;;;;;;;;;;;;5054954;28;20394;-22
2023/12/25 05:03:30;;;;;;;;;;;;;;;;;;5347465;22;19978;-14
2023/12/25 05:05:57;;;;;;;;;;;;;;;;;;5055563;28;19909;-15
2023/12/25 05:08:23;;;;;;;;;;;;;;;;;;5055002;28;20046;-16
2023/12/25 05:10:49;;;;;;;;;;;;;;;;;;5055042;28;19909;-15
2023/12/25 05:13:15;;;;;;;;;;;;;;;;;;5054948;28;19962;-15
2023/12/25 05:15:41;;;;;;;;;;;;;;;;;;5055848;28;19912;-14
2023/12/25 05:18:07;;;;;;;;;;;;;;;;;;5054903;28;20005;-16
2023/12/25 05:20:33;;;;;;;;;;;;;;;;;;5055107;28;19920;-14
2023/12/25 05:22:59;;;;;;;;;;;;;;;;;;5054686;28;20351;-16
2023/12/25 05:25:25;;;;;;;;;;;;;;;;;;5054770;28;19909;-16
2023/12/25 05:27:50;;;;;;;;;;;;;;;;;;5037183;28;19920;-15
2023/12/25 05:30:17;;;;;;;;;;;;;;;;;;5054797;28;19915;-16
2023/12/25 05:32:42;;;;;;;;;;;;;;;;;;5054623;28;19991;-16
2023/12/25 05:35:08;;;;;;;;;;;;;;;;;;5054643;28;20310;-16
2023/12/25 05:37:34;;;;;;;;;;;;;;;;;;5036988;28;19971;-14
2023/12/25 05:40:00;;;;;;;;;;;;;;;;;;5054574;28;19913;-15
2023/12/25 05:42:26;;;;;;;;;;;;;;;;;;5054630;28;19913;-16
2023/12/25 05:44:52;;;;;;;;;;;;;;;;;;5054775;28;19931;-15
2023/12/25 05:47:18;;;;;;;;;;;;;;;;;;5054464;28;19919;-16
2023/12/25 05:49:44;;;;;;;;;;;;;;;;;;5054492;28;19920;-15
2023/12/25 05:52:10;;;;;;;;;;;;;;;;;;5054592;28;19909;-16
2023/12/25 05:54:36;;;;;;;;;;;;;;;;;;5054442;28;20263;-15
2023/12/25 05:57:02;;;;;;;;;;;;;;;;;;5054736;28;19909;-15
2023/12/25 05:59:28;;;;;;;;;;;;;;;;;;5036858;28;20255;-16
2023/12/25 06:01:54;;;;;;;;;;;;;;;;;;5054223;28;19921;-15
2023/12/25 06:04:20;;;;;;;;;;;;;;;;;;5036659;28;20422;-16
2023/12/25 06:06:46;;;;;;;;;;;;;;;;;;5037679;28;19928;-15
2023/12/25 06:09:12;;;;;;;;;;;;;;;;;;5058358;28;19909;-16
2023/12/25 06:11:38;;;;;;;;;;;;;;;;;;5058606;28;19967;-15
2023/12/25 06:14:04;;;;;;;;;;;;;;;;;;5058300;28;20294;-16
2023/12/25 06:16:30;;;;;;;;;;;;;;;;;;5058314;28;19955;-16
2023/12/25 06:18:56;;;;;;;;;;;;;;;;;;5058191;28;19913;-16
2023/12/25 06:21:22;;;;;;;;;;;;;;;;;;5058124;28;19912;-15
2023/12/25 06:23:48;;;;;;;;;;;;;;;;;;5058592;28;20327;-17
2023/12/25 06:26:14;;;;;;;;;;;;;;;;;;5058149;28;20216;-16
2023/12/25 06:28:40;;;;;;;;;;;;;;;;;;5058071;28;19908;-15
2023/12/25 06:31:06;;;;;;;;;;;;;;;;;;5058069;28;19973;-15
2023/12/25 06:33:33;;;;;;;;;;;;;;;;;;5057958;28;20022;-16
2023/12/25 06:35:59;;;;;;;;;;;;;;;;;;5040408;28;19909;-14
2023/12/25 06:38:25;;;;;;;;;;;;;;;;;;5058345;28;20434;-15
2023/12/25 06:40:51;;;;;;;;;;;;;;;;;;5057821;28;20310;-15
2023/12/25 06:43:17;;;;;;;;;;;;;;;;;;5057556;28;19913;-17
2023/12/25 06:45:43;;;;;;;;;;;;;;;;;;5057707;28;19916;-15
2023/12/25 06:48:10;;;;;;;;;;;;;;;;;;5057646;28;19990;-15
2023/12/25 06:50:38;;;;;;;;;;;;;;;;;;5058081;28;19912;-15
2023/12/25 06:53:04;;;;;;;;;;;;;;;;;;5057400;28;19909;-15
2023/12/25 06:55:30;;;;;;;;;;;;;;;;;;5057505;28;19909;-15
2023/12/25 06:57:56;;;;;;;;;;;;;;;;;;5058002;28;20331;-14
2023/12/25 07:00:23;;;;;;;;;;;;;;;;;;5057439;28;20355;-15
2023/12/25 07:02:50;;;;;;;;;;;;;;;;;;5057067;28;20334;-14
2023/12/25 07:05:16;;;;;;;;;;;;;;;;;;5057771;28;19909;-15
2023/12/25 07:07:42;;;;;;;;;;;;;;;;;;5057194;28;19963;-15
2023/12/25 07:10:08;;;;;;;;;;;;;;;;;;5057264;28;19909;-15
2023/12/25 07:12:34;;;;;;;;;;;;;;;;;;5057124;28;19955;-16
2023/12/25 07:15:00;;;;;;;;;;;;;;;;;;5057221;28;19905;-16
2023/12/25 07:17:26;;;;;;;;;;;;;;;;;;5057152;28;20027;-16
2023/12/25 07:19:52;;;;;;;;;;;;;;;;;;5056820;28;19917;-16
2023/12/25 07:22:18;;;;;;;;;;;;;;;;;;5057209;28;19912;-15
2023/12/25 07:24:44;;;;;;;;;;;;;;;;;;5056910;28;19924;-14
2023/12/25 07:27:10;;;;;;;;;;;;;;;;;;5056888;28;19962;-15
2023/12/25 07:29:36;;;;;;;;;;;;;;;;;;5056836;28;20004;-14
2023/12/25 07:32:02;;;;;;;;;;;;;;;;;;5056947;28;19920;-14
2023/12/25 07:34:28;;;;;;;;;;;;;;;;;;5057306;28;19947;-15
2023/12/25 07:36:54;;;;;;;;;;;;;;;;;;5056786;28;20259;-15
2023/12/25 07:39:20;;;;;;;;;;;;;;;;;;5056966;28;19925;-15
2023/12/25 07:41:46;;;;;;;;;;;;;;;;;;5056774;28;20278;-16
2023/12/25 07:44:12;;;;;;;;;;;;;;;;;;5056855;28;20003;-16
2023/12/25 07:46:38;;;;;;;;;;;;;;;;;;5039026;28;20319;-16
2023/12/25 07:49:04;;;;;;;;;;;;;;;;;;5056611;28;19915;-17
2023/12/25 07:51:30;;;;;;;;;;;;;;;;;;5056523;28;19905;-15
2023/12/25 07:53:56;;;;;;;;;;;;;;;;;;5056497;28;19912;-17
2023/12/25 07:56:22;;;;;;;;;;;;;;;;;;5056598;28;19905;-16
2023/12/25 07:58:48;;;;;;;;;;;;;;;;;;5038718;28;19913;-16
2023/12/25 08:01:14;;;;;;;;;;;;;;;;;;5056232;28;20011;-17
2023/12/25 08:03:40;;;;;;;;;;;;;;;;;;5055936;28;19921;-17
2023/12/25 08:06:07;;;;;;;;;;;;;;;;;;5056283;28;19913;-17
2023/12/25 08:08:33;;;;;;;;;;;;;;;;;;5056624;28;19920;-18
2023/12/25 08:10:59;;;;;;;;;;;;;;;;;;5038377;28;19909;-17
2023/12/25 08:13:25;;;;;;;;;;;;;;;;;;5056217;28;19909;-16
2023/12/25 08:15:51;;;;;;;;;;;;;;;;;;5056184;28;19919;-16
2023/12/25 08:18:17;;;;;;;;;;;;;;;;;;5055917;28;19959;-15
2023/12/25 08:20:43;;;;;;;;;;;;;;;;;;5056179;28;19909;-16
2023/12/25 08:23:08;;;;;;;;;;;;;;;;;;5055652;28;19912;-16
2023/12/25 08:25:34;;;;;;;;;;;;;;;;;;5055885;28;20023;-15
2023/12/25 08:28:00;;;;;;;;;;;;;;;;;;5055734;28;19909;-15
2023/12/25 08:30:26;;;;;;;;;;;;;;;;;;5055891;28;20039;-16
2023/12/25 08:32:52;;;;;;;;;;;;;;;;;;5055846;28;20339;-16
2023/12/25 08:35:18;;;;;;;;;;;;;;;;;;5055754;28;19963;-16
2023/12/25 08:37:44;;;;;;;;;;;;;;;;;;5055666;28;20343;-14
2023/12/25 08:40:10;;;;;;;;;;;;;;;;;;5055631;28;20267;-16
2023/12/25 08:42:36;;;;;;;;;;;;;;;;;;5055401;28;19913;-14
2023/12/25 08:45:04;;;;;;;;;;;;;;;;;;5055517;28;19912;-16
2023/12/25 08:47:30;;;;;;;;;;;;;;;;;;5055313;28;19922;-14
2023/12/25 08:49:56;;;;;;;;;;;;;;;;;;5055588;28;19940;-15
2023/12/25 08:52:22;;;;;;;;;;;;;;;;;;5055260;28;19909;-15
2023/12/25 08:54:48;;;;;;;;;;;;;;;;;;5037670;28;20236;-16
2023/12/25 08:57:14;;;;;;;;;;;;;;;;;;5055226;28;19936;-14
2023/12/25 08:59:40;;;;;;;;;;;;;;;;;;5055184;28;19909;-14
2023/12/25 09:02:06;;;;;;;;;;;;;;;;;;5054985;28;19991;-14
2023/12/25 09:04:32;;;;;;;;;;;;;;;;;;5054967;28;19928;-15
2023/12/25 09:06:58;;;;;;;;;;;;;;;;;;5038248;28;19916;-14
2023/12/25 09:09:25;;;;;;;;;;;;;;;;;;5037492;28;20087;-16
2023/12/25 09:11:51;;;;;;;;;;;;;;;;;;5054958;28;19915;-17
2023/12/25 09:14:17;;;;;;;;;;;;;;;;;;5054914;28;19909;-17
2023/12/25 09:16:43;;;;;;;;;;;;;;;;;;5054895;28;19961;-16
2023/12/25 09:19:09;;;;;;;;;;;;;;;;;;5055439;28;19909;-17
2023/12/25 09:21:35;;;;;;;;;;;;;;;;;;5054683;28;20225;-15
2023/12/25 09:24:01;;;;;;;;;;;;;;;;;;5054722;28;19915;-15
2023/12/25 09:26:27;;;;;;;;;;;;;;;;;;5055044;28;19908;-16
2023/12/25 09:28:53;;;;;;;;;;;;;;;;;;5054719;28;19920;-17
2023/12/25 09:31:19;;;;;;;;;;;;;;;;;;5054993;28;19909;-17
2023/12/25 09:33:45;;;;;;;;;;;;;;;;;;5054617;28;19920;-17
2023/12/25 09:36:11;;;;;;;;;;;;;;;;;;5055134;28;20236;-15
2023/12/25 09:38:37;;;;;;;;;;;;;;;;;;5054574;28;19916;-17
2023/12/25 09:41:03;;;;;;;;;;;;;;;;;;5054295;28;19931;-15
2023/12/25 09:43:29;;;;;;;;;;;;;;;;;;5054774;28;20006;-17
2023/12/25 09:45:55;;;;;;;;;;;;;;;;;;5054550;28;19909;-17
2023/12/25 09:48:21;;;;;;;;;;;;;;;;;;5054496;28;20330;-16
2023/12/25 09:50:47;;;;;;;;;;;;;;;;;;5054721;28;19995;-17
2023/12/25 09:53:13;;;;;;;;;;;;;;;;;;5054379;28;19941;-15
2023/12/25 09:55:39;;;;;;;;;;;;;;;;;;5054432;28;19991;-15
2023/12/25 09:58:05;;;;;;;;;;;;;;;;;;5054476;28;19909;-17
2023/12/25 10:00:31;;;;;;;;;;;;;;;;;;5054408;28;19916;-16
2023/12/25 10:02:57;;;;;;;;;;;;;;;;;;5053984;28;19924;-15
2023/12/25 10:05:23;;;;;;;;;;;;;;;;;;5054827;28;19904;-16
2023/12/25 10:07:49;;;;;;;;;;;;;;;;;;5054316;28;20292;-15
2023/12/25 10:10:15;;;;;;;;;;;;;;;;;;5054767;28;19943;-17
2023/12/25 10:12:41;;;;;;;;;;;;;;;;;;5054425;28;19974;-16
2023/12/25 10:15:07;;;;;;;;;;;;;;;;;;5054186;28;19904;-14
2023/12/25 10:17:33;;;;;;;;;;;;;;;;;;5054173;28;19909;-15
2023/12/25 10:19:59;;;;;;;;;;;;;;;;;;5054620;28;19905;-16
2023/12/25 10:22:25;;;;;;;;;;;;;;;;;;5053971;28;20482;-15
2023/12/25 10:24:51;;;;;;;;;;;;;;;;;;5054224;28;19909;-16
2023/12/25 10:27:17;;;;;;;;;;;;;;;;;;5054089;28;19915;-17
2023/12/25 10:29:43;;;;;;;;;;;;;;;;;;5054334;28;19971;-16
2023/12/25 10:32:09;;;;;;;;;;;;;;;;;;5054033;28;19916;-17
2023/12/25 10:34:35;;;;;;;;;;;;;;;;;;5054287;28;19971;-17
2023/12/25 10:37:01;;;;;;;;;;;;;;;;;;5054248;28;19913;-16
2023/12/25 10:39:27;;;;;;;;;;;;;;;;;;5054040;28;19987;-16
2023/12/25 10:41:52;;;;;;;;;;;;;;;;;;5036270;28;20244;-16
2023/12/25 10:44:18;;;;;;;;;;;;;;;;;;5053918;28;19992;-15
2023/12/25 10:46:44;;;;;;;;;;;;;;;;;;5054148;28;19905;-16
2023/12/25 10:49:10;;;;;;;;;;;;;;;;;;5054183;28;19909;-15
2023/12/25 10:51:36;;;;;;;;;;;;;;;;;;5054136;28;20377;-16
2023/12/25 10:54:02;;;;;;;;;;;;;;;;;;5055074;28;20315;-17
2023/12/25 10:56:28;;;;;;;;;;;;;;;;;;5057498;28;19915;-17
2023/12/25 10:58:54;;;;;;;;;;;;;;;;;;5039837;28;19917;-17
2023/12/25 11:01:20;;;;;;;;;;;;;;;;;;5057362;28;19961;-17
2023/12/25 11:03:46;;;;;;;;;;;;;;;;;;5039461;28;19975;-16
2023/12/25 11:06:12;;;;;;;;;;;;;;;;;;5057308;28;19920;-16
2023/12/25 11:08:40;;;;;;;;;;;;;;;;;;5057318;28;20007;-16
2023/12/25 11:11:06;;;;;;;;;;;;;;;;;;5057203;28;19975;-17
2023/12/25 11:13:32;;;;;;;;;;;;;;;;;;5057078;28;19999;-15
2023/12/25 11:15:58;;;;;;;;;;;;;;;;;;5057108;28;19920;-16
2023/12/25 11:18:24;;;;;;;;;;;;;;;;;;5057179;28;19909;-15
2023/12/25 11:20:50;;;;;;;;;;;;;;;;;;5057265;28;20343;-15
2023/12/25 11:23:16;;;;;;;;;;;;;;;;;;5056879;28;19979;-17
2023/12/25 11:25:42;;;;;;;;;;;;;;;;;;5057476;28;19909;-16
2023/12/25 11:28:08;;;;;;;;;;;;;;;;;;5056904;28;19916;-15
2023/12/25 11:30:35;;;;;;;;;;;;;;;;;;5057330;28;19908;-15
2023/12/25 11:33:01;;;;;;;;;;;;;;;;;;5056751;28;20005;-16
2023/12/25 11:35:28;;;;;;;;;;;;;;;;;;5057562;28;19916;-16
2023/12/25 11:37:54;;;;;;;;;;;;;;;;;;5039160;28;20213;-16
2023/12/25 11:40:20;;;;;;;;;;;;;;;;;;5039095;28;20023;-15
2023/12/25 11:42:46;;;;;;;;;;;;;;;;;;5056558;28;20312;-15
2023/12/25 11:45:12;;;;;;;;;;;;;;;;;;5056553;28;19909;-16
2023/12/25 11:47:42;;;;;;;;;;;;;;;;;;5038942;28;19963;-15
2023/12/25 11:50:09;;;;;;;;;;;;;;;;;;5057005;28;19909;-15
2023/12/25 11:52:35;;;;;;;;;;;;;;;;;;5056654;28;19971;-15
2023/12/25 11:55:01;;;;;;;;;;;;;;;;;;5056429;28;19908;-15
2023/12/25 11:57:27;;;;;;;;;;;;;;;;;;5056330;28;19909;-14
2023/12/25 11:59:53;;;;;;;;;;;;;;;;;;5056759;28;19909;-16
2023/12/25 12:02:19;;;;;;;;;;;;;;;;;;5056093;28;19913;-14
2023/12/25 12:04:45;;;;;;;;;;;;;;;;;;5055796;28;20374;-14
2023/12/25 12:07:10;;;;;;;;;;;;;;;;;;5056519;28;19909;-14
2023/12/25 12:09:36;;;;;;;;;;;;;;;;;;5056599;28;19915;-14
2023/12/25 12:12:02;;;;;;;;;;;;;;;;;;5055998;28;20274;-15
2023/12/25 12:14:28;;;;;;;;;;;;;;;;;;5056029;28;19937;-16
2023/12/25 12:16:55;;;;;;;;;;;;;;;;;;5038482;28;19931;-15
2023/12/25 12:19:20;;;;;;;;;;;;;;;;;;5056004;28;19939;-16
2023/12/25 12:21:47;;;;;;;;;;;;;;;;;;5056119;28;19948;-14
2023/12/25 12:24:13;;;;;;;;;;;;;;;;;;5055985;28;19909;-15
2023/12/25 12:26:39;;;;;;;;;;;;;;;;;;5056063;28;19966;-16
2023/12/25 12:29:05;;;;;;;;;;;;;;;;;;5055841;28;19908;-15
2023/12/25 12:31:31;;;;;;;;;;;;;;;;;;5038209;28;19959;-14
2023/12/25 12:33:57;;;;;;;;;;;;;;;;;;5055736;28;20338;-15
2023/12/25 12:36:23;;;;;;;;;;;;;;;;;;5055889;28;20003;-15
2023/12/25 12:38:49;;;;;;;;;;;;;;;;;;5055661;28;20004;-16
2023/12/25 12:41:15;;;;;;;;;;;;;;;;;;5055792;28;19982;-16
2023/12/25 12:43:41;;;;;;;;;;;;;;;;;;5055283;28;19913;-16
2023/12/25 12:46:07;;;;;;;;;;;;;;;;;;5055941;28;20029;-15
2023/12/25 12:48:33;;;;;;;;;;;;;;;;;;5055642;28;19940;-16
2023/12/25 12:50:59;;;;;;;;;;;;;;;;;;5037863;28;19915;-15
2023/12/25 12:53:25;;;;;;;;;;;;;;;;;;5055331;28;19909;-16
2023/12/25 12:55:51;;;;;;;;;;;;;;;;;;5055350;28;19915;-15
2023/12/25 12:58:17;;;;;;;;;;;;;;;;;;5055300;28;19908;-19
2023/12/25 13:00:43;;;;;;;;;;;;;;;;;;5055729;28;19909;-16
2023/12/25 13:03:09;;;;;;;;;;;;;;;;;;5054998;28;19921;-16
2023/12/25 13:05:35;;;;;;;;;;;;;;;;;;5055128;28;20365;-14
2023/12/25 13:08:01;;;;;;;;;;;;;;;;;;5055069;28;19909;-17
2023/12/25 13:10:27;;;;;;;;;;;;;;;;;;5055551;28;19905;-16
2023/12/25 13:12:53;;;;;;;;;;;;;;;;;;5054826;28;20407;-16
2023/12/25 13:15:19;;;;;;;;;;;;;;;;;;5054908;28;19905;-16
2023/12/25 13:17:45;;;;;;;;;;;;;;;;;;5054189;28;20359;-16
2023/12/25 13:20:11;;;;;;;;;;;;;;;;;;5055140;28;19962;-17
2023/12/25 13:22:37;;;;;;;;;;;;;;;;;;5055174;28;19913;-16
2023/12/25 13:25:04;;;;;;;;;;;;;;;;;;5054870;28;20254;-16
2023/12/25 13:27:30;;;;;;;;;;;;;;;;;;5054732;28;19955;-15
2023/12/25 13:29:56;;;;;;;;;;;;;;;;;;5054768;28;19942;-15
2023/12/25 13:32:22;;;;;;;;;;;;;;;;;;5054676;28;19974;-14
2023/12/25 13:34:48;;;;;;;;;;;;;;;;;;5054695;28;19909;-16
2023/12/25 13:37:14;;;;;;;;;;;;;;;;;;5054860;28;20232;-14
2023/12/25 13:39:41;;;;;;;;;;;;;;;;;;5055140;28;20031;-16
2023/12/25 13:42:08;;;;;;;;;;;;;;;;;;5054519;28;20390;-16
2023/12/25 13:44:34;;;;;;;;;;;;;;;;;;5055001;28;20373;-16
2023/12/25 13:47:00;;;;;;;;;;;;;;;;;;5054587;28;19917;-15
2023/12/25 13:49:26;;;;;;;;;;;;;;;;;;5054717;28;19917;-16
2023/12/25 13:51:52;;;;;;;;;;;;;;;;;;5036831;28;20007;-17
2023/12/25 13:54:18;;;;;;;;;;;;;;;;;;5054498;28;19909;-17
2023/12/25 13:56:44;;;;;;;;;;;;;;;;;;5055182;28;19947;-15
2023/12/25 13:59:10;;;;;;;;;;;;;;;;;;5054443;28;20004;-16
2023/12/25 14:01:35;;;;;;;;;;;;;;;;;;5054391;28;19948;-16
2023/12/25 14:04:01;;;;;;;;;;;;;;;;;;5054235;28;20274;-17
2023/12/25 14:06:27;;;;;;;;;;;;;;;;;;5054925;28;19917;-16
2023/12/25 14:08:53;;;;;;;;;;;;;;;;;;5054491;28;19909;-16
2023/12/25 14:11:19;;;;;;;;;;;;;;;;;;5054474;28;20349;-17
2023/12/25 14:13:45;;;;;;;;;;;;;;;;;;5054351;28;19913;-16
2023/12/25 14:16:12;;;;;;;;;;;;;;;;;;5054616;28;19916;-16
2023/12/25 14:18:38;;;;;;;;;;;;;;;;;;5054494;28;19916;-14
2023/12/25 14:21:04;;;;;;;;;;;;;;;;;;5054457;28;19909;-16
2023/12/25 14:23:30;;;;;;;;;;;;;;;;;;5053998;28;19913;-16
2023/12/25 14:25:56;;;;;;;;;;;;;;;;;;5054223;28;19979;-16
2023/12/25 14:28:22;;;;;;;;;;;;;;;;;;5056012;28;19915;-15
2023/12/25 14:30:48;;;;;;;;;;;;;;;;;;5058266;28;19947;-15
2023/12/25 14:33:16;;;;;;;;;;;;;;;;;;5058012;28;19941;-28
2023/12/25 14:35:42;;;;;;;;;;;;;;;;;;5057844;28;19978;-15
2023/12/25 14:38:08;;;;;;;;;;;;;;;;;;5057934;28;19909;-16
2023/12/25 14:40:34;;;;;;;;;;;;;;;;;;5057929;28;19980;-17
2023/12/25 14:43:00;;;;;;;;;;;;;;;;;;5057714;28;20263;-14
2023/12/25 14:45:27;;;;;;;;;;;;;;;;;;5057804;28;19919;-16
2023/12/25 14:47:53;;;;;;;;;;;;;;;;;;5057728;28;19909;-15
2023/12/25 14:50:19;;;;;;;;;;;;;;;;;;5058424;28;19908;-16
2023/12/25 14:52:45;;;;;;;;;;;;;;;;;;5057547;28;20190;-16
2023/12/25 14:55:11;;;;;;;;;;;;;;;;;;5058100;28;19909;-15
2023/12/25 14:57:37;;;;;;;;;;;;;;;;;;5057595;28;20042;-15
2023/12/25 15:00:04;;;;;;;;;;;;;;;;;;5057860;28;19909;-16
2023/12/25 15:02:30;;;;;;;;;;;;;;;;;;5057376;28;19970;-17
2023/12/25 15:05:00;;;;;;;;;;;;;;;;;;5057849;28;20335;-16
2023/12/25 15:07:26;;;;;;;;;;;;;;;;;;5057618;28;19948;-16
2023/12/25 15:09:52;;;;;;;;;;;;;;;;;;5057332;28;19909;-16
2023/12/25 15:12:18;;;;;;;;;;;;;;;;;;5057094;28;19909;-14
2023/12/25 15:14:44;;;;;;;;;;;;;;;;;;5057243;28;19935;-14
2023/12/25 15:17:10;;;;;;;;;;;;;;;;;;5057165;28;20469;-15
2023/12/25 15:19:36;;;;;;;;;;;;;;;;;;5057017;28;19990;-15
2023/12/25 15:22:02;;;;;;;;;;;;;;;;;;5056894;28;19920;-14
2023/12/25 15:24:28;;;;;;;;;;;;;;;;;;5057493;28;19909;-14
2023/12/25 15:26:54;;;;;;;;;;;;;;;;;;5056951;28;19962;-17
2023/12/25 15:29:20;;;;;;;;;;;;;;;;;;5056891;28;19919;-16
2023/12/25 15:31:46;;;;;;;;;;;;;;;;;;5056836;28;20297;-16
2023/12/25 15:34:12;;;;;;;;;;;;;;;;;;5039219;28;19909;-16
2023/12/25 15:36:38;;;;;;;;;;;;;;;;;;5057029;28;19927;-16
2023/12/25 15:39:04;;;;;;;;;;;;;;;;;;5056846;28;19967;-14
2023/12/25 15:41:30;;;;;;;;;;;;;;;;;;5056437;28;19912;-16
2023/12/25 15:43:56;;;;;;;;;;;;;;;;;;5056607;28;19913;-16
2023/12/25 15:46:22;;;;;;;;;;;;;;;;;;5056847;28;19919;-17
2023/12/25 15:48:50;;;;;;;;;;;;;;;;;;5056607;28;19908;-19
2023/12/25 15:51:16;;;;;;;;;;;;;;;;;;5056533;28;19913;-17
2023/12/25 15:53:42;;;;;;;;;;;;;;;;;;5056594;28;19920;-17
2023/12/25 15:56:10;;;;;;;;;;;;;;;;;;5056385;28;19956;-17
2023/12/25 15:58:36;;;;;;;;;;;;;;;;;;5056263;28;19913;-17
2023/12/25 16:01:03;;;;;;;;;;;;;;;;;;5056820;28;19908;-17
2023/12/25 16:03:29;;;;;;;;;;;;;;;;;;5055948;28;19920;-17
2023/12/25 16:05:55;;;;;;;;;;;;;;;;;;5056138;28;19905;-17
2023/12/25 16:08:21;;;;;;;;;;;;;;;;;;5056178;28;19915;-17
2023/12/25 16:10:47;;;;;;;;;;;;;;;;;;5056282;28;19904;-19
2023/12/25 16:13:13;;;;;;;;;;;;;;;;;;5038503;28;20331;-19
2023/12/25 16:15:39;;;;;;;;;;;;;;;;;;5056683;28;19959;-17
2023/12/25 16:18:05;;;;;;;;;;;;;;;;;;5056327;28;19963;-17
2023/12/25 16:20:31;;;;;;;;;;;;;;;;;;5055999;28;19905;-17
2023/12/25 16:22:57;;;;;;;;;;;;;;;;;;5056049;28;19913;-17
2023/12/25 16:25:23;;;;;;;;;;;;;;;;;;5055894;28;20328;-17
2023/12/25 16:27:49;;;;;;;;;;;;;;;;;;5056105;28;19962;-17
2023/12/25 16:30:15;;;;;;;;;;;;;;;;;;5055812;28;19909;-19
2023/12/25 16:32:41;;;;;;;;;;;;;;;;;;5056219;28;20007;-19
2023/12/25 16:35:07;;;;;;;;;;;;;;;;;;5055706;28;19999;-19
2023/12/25 16:37:33;;;;;;;;;;;;;;;;;;5055699;28;19952;-19
2023/12/25 16:39:59;;;;;;;;;;;;;;;;;;5038096;28;20383;-19